Time;durP1;ratioP1;P1;durP2;ratioP2;P2;SDS_P1;SDS_P2;PMS_P1;PMS_P2;Temp;Humidity;BMP_temperature;BMP_pressure;BME280_temperature;BME280_humidity;BME280_pressure;Samples;Min_cycle;Max_cycle;Signal;HPM_P1;HPM_P2
2023/03/14 00:01:58;;;;;;;7.60;2.03;;;11.00;99.90;;;;;;5037262;28;20191;-48
2023/03/14 00:04:25;;;;;;;3.37;1.80;;;11.00;99.90;;;;;;5033408;28;20663;-53
2023/03/14 00:06:52;;;;;;;7.07;2.07;;;11.00;99.90;;;;;;5051427;28;20974;-51
2023/03/14 00:09:20;;;;;;;9.73;2.20;;;10.90;99.90;;;;;;5043510;28;20305;-54
2023/03/14 00:11:47;;;;;;;4.33;2.03;;;10.90;99.90;;;;;;5032840;28;20207;-49
2023/03/14 00:14:16;;;;;;;5.17;1.83;;;10.90;99.90;;;;;;5051267;28;20223;-50
2023/03/14 00:16:46;;;;;;;4.83;2.03;;;10.90;99.90;;;;;;5047966;28;20194;-50
2023/03/14 00:19:13;;;;;;;3.70;1.60;;;10.80;99.90;;;;;;5054700;28;20202;-51
2023/03/14 00:21:40;;;;;;;6.03;2.23;;;10.80;99.90;;;;;;5043688;28;20214;-50
2023/03/14 00:24:08;;;;;;;6.67;2.27;;;10.80;99.90;;;;;;5046731;28;20219;-48
2023/03/14 00:26:36;;;;;;;4.37;2.00;;;10.80;99.90;;;;;;5027129;28;20241;-49
2023/03/14 00:29:03;;;;;;;7.00;2.30;;;10.80;99.90;;;;;;5049457;28;20214;-47
2023/03/14 00:31:29;;;;;;;7.13;2.80;;;10.80;99.90;;;;;;5048372;28;20215;-53
2023/03/14 00:33:56;;;;;;;7.83;2.40;;;10.80;99.90;;;;;;5046443;28;20223;-48
2023/03/14 00:36:23;;;;;;;6.50;2.77;;;10.80;99.90;;;;;;5047978;28;20653;-52
2023/03/14 00:38:52;;;;;;;5.93;2.27;;;10.80;99.90;;;;;;5045706;28;20222;-50
2023/03/14 00:41:22;;;;;;;6.63;2.00;;;10.80;99.90;;;;;;5045356;28;20198;-50
2023/03/14 00:43:51;;;;;;;8.53;2.47;;;10.80;99.90;;;;;;5041627;28;20202;-48
2023/03/14 00:46:18;;;;;;;2.73;2.00;;;10.80;99.90;;;;;;5050068;28;20210;-52
2023/03/14 00:48:46;;;;;;;4.50;2.13;;;10.80;99.90;;;;;;5060701;28;20191;-48
2023/03/14 00:51:13;;;;;;;6.93;2.13;;;10.80;99.90;;;;;;5048721;28;20229;-53
2023/03/14 00:53:43;;;;;;;6.13;2.10;;;10.90;99.90;;;;;;5043950;28;20199;-49
2023/03/14 00:56:12;;;;;;;8.57;2.20;;;10.90;99.90;;;;;;5046021;28;20199;-48
2023/03/14 00:58:42;;;;;;;6.30;1.90;;;10.90;99.90;;;;;;5031867;28;20264;-49
2023/03/14 01:01:14;;;;;;;6.07;2.27;;;10.90;99.90;;;;;;5048411;28;20591;-49
2023/03/14 01:03:41;;;;;;;5.73;2.40;;;10.90;99.90;;;;;;5048882;28;20290;-49
2023/03/14 01:06:11;;;;;;;4.03;2.07;;;10.90;99.90;;;;;;5044735;28;20199;-50
2023/03/14 01:08:38;;;;;;;8.67;2.10;;;11.00;99.90;;;;;;5053054;28;20202;-48
2023/03/14 01:11:07;;;;;;;4.40;2.00;;;11.00;99.90;;;;;;5055454;28;20218;-48
2023/03/14 01:13:34;;;;;;;7.97;2.30;;;11.00;99.90;;;;;;5028539;28;20300;-46
2023/03/14 01:16:05;;;;;;;6.23;2.20;;;11.00;99.90;;;;;;5058003;28;20200;-47
2023/03/14 01:18:34;;;;;;;6.60;2.20;;;11.00;99.90;;;;;;5050034;28;20195;-47
2023/03/14 01:21:01;;;;;;;4.30;1.80;;;11.00;99.90;;;;;;5050901;28;20196;-48
2023/03/14 01:23:28;;;;;;;7.27;2.60;;;11.10;99.90;;;;;;5040524;28;20199;-53
2023/03/14 01:25:55;;;;;;;6.97;2.50;;;11.10;99.90;;;;;;5044075;28;20223;-48
2023/03/14 01:28:23;;;;;;;8.43;2.37;;;11.10;99.90;;;;;;5033094;28;20207;-53
2023/03/14 01:30:49;;;;;;;8.57;2.73;;;11.10;99.90;;;;;;5047608;28;20746;-48
2023/03/14 01:33:17;;;;;;;3.90;1.80;;;11.10;99.90;;;;;;5043505;28;20195;-53
2023/03/14 01:35:46;;;;;;;6.03;2.00;;;11.20;99.90;;;;;;5042661;28;20220;-48
2023/03/14 01:38:14;;;;;;;3.40;1.77;;;11.10;99.90;;;;;;5040146;28;20231;-51
2023/03/14 01:40:44;;;;;;;4.43;2.00;;;11.20;99.90;;;;;;5041200;28;20300;-49
2023/03/14 01:43:16;;;;;;;14.90;3.20;;;11.20;99.90;;;;;;5042099;28;20195;-49
2023/03/14 01:46:20;;;;;;;5.77;2.10;;;11.20;99.90;;;;;;5032305;28;20308;-46
2023/03/14 01:48:56;;;;;;;4.10;1.93;;;11.20;99.90;;;;;;5055348;28;20975;-47
2023/03/14 01:51:29;;;;;;;8.80;2.60;;;11.20;99.90;;;;;;5043234;28;20225;-51
2023/03/14 01:54:05;;;;;;;3.90;2.00;;;11.20;99.90;;;;;;5042127;28;20218;-48
2023/03/14 01:56:33;;;;;;;3.27;1.80;;;11.20;99.90;;;;;;5040013;28;20947;-49
2023/03/14 01:59:04;;;;;;;6.90;2.07;;;11.10;99.90;;;;;;5045609;28;20215;-49
2023/03/14 02:01:31;;;;;;;7.47;2.40;;;11.10;99.90;;;;;;5032798;28;20972;-50
2023/03/14 02:04:02;;;;;;;9.37;2.40;;;11.10;99.90;;;;;;5044283;28;20241;-46
2023/03/14 02:06:36;;;;;;;9.87;2.13;;;11.10;99.90;;;;;;5053047;28;20210;-49
2023/03/14 02:09:04;;;;;;;8.23;2.07;;;11.10;99.90;;;;;;5062762;28;20205;-49
2023/03/14 02:11:34;;;;;;;5.47;2.00;;;11.10;99.90;;;;;;5041558;28;20452;-52
2023/03/14 02:14:10;;;;;;;4.70;1.83;;;11.10;99.90;;;;;;5040385;28;20226;-47
2023/03/14 02:16:59;;;;;;;7.77;2.60;;;11.10;99.90;;;;;;5050837;28;20234;-47
2023/03/14 02:20:00;;;;;;;8.43;2.40;;;11.10;99.90;;;;;;5050438;28;20197;-50
2023/03/14 02:22:42;;;;;;;10.40;2.10;;;11.00;99.90;;;;;;5041541;28;20245;-50
2023/03/14 02:25:16;;;;;;;3.57;2.07;;;11.00;99.90;;;;;;5043476;28;20233;-49
2023/03/14 02:27:47;;;;;;;6.37;2.17;;;11.00;99.90;;;;;;5048975;28;20213;-53
2023/03/14 02:30:17;;;;;;;7.53;2.30;;;11.00;99.90;;;;;;5044440;28;20302;-53
2023/03/14 02:32:47;;;;;;;6.37;2.27;;;11.00;99.90;;;;;;5050904;28;20277;-47
2023/03/14 02:35:18;;;;;;;6.83;3.10;;;10.90;99.90;;;;;;5045055;28;20219;-50
2023/03/14 02:37:49;;;;;;;5.03;2.50;;;10.90;99.90;;;;;;5040665;28;20206;-47
2023/03/14 02:40:38;;;;;;;13.33;3.03;;;10.90;99.90;;;;;;5041197;28;20934;-51
2023/03/14 02:43:08;;;;;;;5.57;2.67;;;10.90;99.90;;;;;;5043501;28;20247;-50
2023/03/14 02:45:41;;;;;;;2.40;2.20;;;10.90;99.90;;;;;;5041347;28;22191;-46
2023/03/14 02:48:12;;;;;;;5.33;1.90;;;10.90;99.90;;;;;;5050253;28;20226;-47
2023/03/14 02:50:39;;;;;;;6.43;2.27;;;10.90;99.90;;;;;;5045964;28;20211;-48
2023/03/14 02:53:31;;;;;;;5.40;2.00;;;10.80;99.90;;;;;;5040317;28;20676;-49
2023/03/14 02:56:03;;;;;;;5.67;2.27;;;10.90;99.90;;;;;;5042648;28;20755;-46
2023/03/14 02:58:34;;;;;;;7.57;2.77;;;10.90;99.90;;;;;;5037674;28;20286;-48
2023/03/14 03:01:21;;;;;;;5.40;2.60;;;10.90;99.90;;;;;;5035251;28;20284;-52
2023/03/14 03:03:47;;;;;;;7.83;2.40;;;10.90;99.90;;;;;;5054787;28;20198;-50
2023/03/14 03:06:16;;;;;;;5.30;2.40;;;10.90;99.90;;;;;;5046566;28;20676;-50
2023/03/14 03:08:43;;;;;;;6.07;2.97;;;11.00;99.90;;;;;;5041637;28;20289;-50
2023/03/14 03:11:09;;;;;;;3.93;2.43;;;10.90;99.90;;;;;;5042646;28;20790;-48
2023/03/14 03:13:38;;;;;;;4.40;2.50;;;11.00;99.90;;;;;;5051832;28;20228;-46
2023/03/14 03:16:07;;;;;;;7.07;2.70;;;11.00;99.90;;;;;;5041363;28;20196;-51
2023/03/14 03:18:35;;;;;;;2.83;2.60;;;11.00;99.90;;;;;;5034641;28;20195;-48
2023/03/14 03:21:02;;;;;;;4.37;2.40;;;11.00;99.90;;;;;;5052312;28;20277;-50
2023/03/14 03:23:28;;;;;;;4.83;2.47;;;11.00;99.90;;;;;;5058949;28;20190;-51
2023/03/14 03:25:55;;;;;;;4.40;2.57;;;11.00;99.90;;;;;;5062719;28;20229;-46
2023/03/14 03:28:22;;;;;;;5.73;3.17;;;11.00;99.90;;;;;;5058946;28;20210;-53
2023/03/14 03:30:51;;;;;;;7.60;3.10;;;11.10;99.90;;;;;;5045589;28;20227;-46
2023/03/14 03:33:18;;;;;;;5.93;2.87;;;11.10;99.90;;;;;;5032097;28;20563;-51
2023/03/14 03:35:48;;;;;;;7.13;2.80;;;11.20;99.90;;;;;;5050901;28;20279;-47
2023/03/14 03:38:19;;;;;;;4.33;2.93;;;11.20;99.90;;;;;;5043717;28;20645;-53
2023/03/14 03:40:49;;;;;;;4.97;2.70;;;11.20;99.90;;;;;;5041217;28;20222;-47
2023/03/14 03:43:18;;;;;;;4.07;2.33;;;11.30;99.90;;;;;;5040726;28;20211;-52
2023/03/14 03:45:46;;;;;;;3.70;2.90;;;11.30;99.90;;;;;;5036874;28;20231;-47
2023/03/14 03:48:14;;;;;;;4.87;2.50;;;11.30;99.90;;;;;;5027402;28;20386;-46
2023/03/14 03:50:45;;;;;;;5.90;2.40;;;11.30;99.90;;;;;;5056330;28;20226;-47
2023/03/14 03:53:14;;;;;;;6.43;2.57;;;11.40;99.90;;;;;;5042735;28;20198;-50
2023/03/14 03:55:44;;;;;;;3.77;2.50;;;11.40;99.90;;;;;;5046157;28;20232;-48
2023/03/14 03:58:11;;;;;;;2.60;2.40;;;11.30;99.90;;;;;;5042088;28;20206;-47
2023/03/14 04:00:59;;;;;;;4.30;2.63;;;11.30;99.90;;;;;;5042729;28;20213;-51
2023/03/14 04:03:28;;;;;;;7.30;2.50;;;11.30;99.90;;;;;;5036005;28;20287;-48
2023/03/14 04:06:00;;;;;;;4.70;2.27;;;11.30;99.90;;;;;;5046344;28;20249;-53
2023/03/14 04:08:27;;;;;;;3.33;2.23;;;11.30;99.90;;;;;;5050233;28;20230;-47
2023/03/14 04:10:56;;;;;;;5.07;2.50;;;11.20;99.90;;;;;;5044717;28;20226;-50
2023/03/14 04:13:36;;;;;;;4.53;2.43;;;11.20;99.90;;;;;;5064741;28;20684;-50
2023/03/14 04:16:04;;;;;;;5.07;1.90;;;11.20;99.90;;;;;;5050505;28;20221;-51
2023/03/14 04:18:32;;;;;;;5.87;2.80;;;11.20;99.90;;;;;;5030178;28;20207;-53
2023/03/14 04:20:59;;;;;;;7.50;2.77;;;11.20;99.90;;;;;;5058254;28;20207;-49
2023/03/14 04:23:33;;;;;;;5.33;2.23;;;11.20;99.90;;;;;;5040696;28;20210;-52
2023/03/14 04:26:00;;;;;;;5.00;2.50;;;11.20;99.90;;;;;;5044879;28;20258;-49
2023/03/14 04:28:28;;;;;;;7.00;2.30;;;11.20;99.90;;;;;;5042600;28;20211;-53
2023/03/14 04:30:55;;;;;;;2.67;2.20;;;11.20;99.90;;;;;;5044071;28;20878;-47
2023/03/14 04:33:24;;;;;;;4.50;2.40;;;11.20;99.90;;;;;;5042858;28;20579;-53
2023/03/14 04:35:55;;;;;;;3.63;2.23;;;11.20;99.90;;;;;;5032661;28;20254;-49
2023/03/14 04:38:23;;;;;;;4.87;2.80;;;11.20;99.90;;;;;;5051648;28;20257;-52
2023/03/14 04:40:51;;;;;;;3.07;2.33;;;11.20;99.90;;;;;;5047866;28;20195;-47
2023/03/14 04:43:20;;;;;;;5.00;2.63;;;11.20;99.90;;;;;;5051968;28;20205;-50
2023/03/14 04:45:55;;;;;;;6.30;2.73;;;11.20;99.90;;;;;;5044700;28;20222;-47
2023/03/14 04:48:44;;;;;;;7.10;2.50;;;11.20;99.90;;;;;;5042523;28;20217;-51
2023/03/14 04:51:13;;;;;;;4.57;1.50;;;11.20;99.90;;;;;;5035314;28;20574;-47
2023/03/14 04:53:41;;;;;;;1.60;1.10;;;11.10;99.90;;;;;;5052555;28;20195;-49
2023/03/14 04:56:12;;;;;;;0.97;0.70;;;10.80;99.90;;;;;;5045341;28;20231;-48
2023/03/14 04:58:42;;;;;;;2.40;0.70;;;10.60;99.90;;;;;;5041602;28;20272;-52
2023/03/14 05:01:09;;;;;;;3.10;0.70;;;10.50;99.90;;;;;;5040722;28;20256;-47
2023/03/14 05:04:00;;;;;;;1.70;0.63;;;10.40;99.90;;;;;;5048320;28;20305;-49
2023/03/14 05:06:39;;;;;;;2.93;0.80;;;10.30;99.90;;;;;;5034471;28;20199;-51
2023/03/14 05:09:42;;;;;;;1.77;0.77;;;10.20;99.90;;;;;;5046306;28;20789;-50
2023/03/14 05:12:42;;;;;;;1.10;0.60;;;10.10;99.90;;;;;;5058061;28;20816;-47
2023/03/14 05:15:40;;;;;;;1.63;0.60;;;9.90;99.90;;;;;;5057907;28;20230;-48
2023/03/14 05:18:27;;;;;;;2.10;0.90;;;9.90;99.90;;;;;;5050676;28;20206;-53
2023/03/14 05:21:08;;;;;;;3.77;1.23;;;9.80;99.90;;;;;;5062547;28;20684;-51
2023/03/14 05:23:51;;;;;;;3.93;0.87;;;9.70;99.90;;;;;;5040415;28;20199;-49
2023/03/14 05:26:44;;;;;;;3.47;1.10;;;9.60;99.90;;;;;;5048272;28;20298;-51
2023/03/14 05:29:27;;;;;;;4.67;1.70;;;9.50;99.90;;;;;;5042257;28;20204;-54
2023/03/14 05:32:04;;;;;;;6.97;2.80;;;9.40;99.90;;;;;;5050763;28;20227;-52
2023/03/14 05:34:58;;;;;;;6.40;1.80;;;9.40;99.90;;;;;;5040610;28;20250;-50
2023/03/14 05:37:40;;;;;;;2.57;1.60;;;9.40;99.90;;;;;;5035149;28;21988;-48
2023/03/14 05:40:35;;;;;;;6.47;1.47;;;9.30;99.90;;;;;;5045541;28;20191;-53
2023/03/14 05:43:09;;;;;;;3.80;1.40;;;9.30;99.90;;;;;;5043906;28;20550;-49
2023/03/14 05:45:39;;;;;;;2.67;1.90;;;9.30;99.90;;;;;;5041717;28;20969;-49
2023/03/14 05:48:26;;;;;;;3.63;1.60;;;9.30;99.90;;;;;;5056975;28;20209;-53
2023/03/14 05:51:12;;;;;;;6.23;2.80;;;9.30;99.90;;;;;;5053748;28;20352;-49
2023/03/14 05:54:02;;;;;;;6.30;2.67;;;9.30;99.90;;;;;;5040179;28;20592;-47
2023/03/14 05:56:48;;;;;;;3.87;2.23;;;9.30;99.90;;;;;;5048658;28;20210;-53
2023/03/14 05:59:32;;;;;;;9.40;3.30;;;9.30;99.90;;;;;;5041567;28;20249;-51
2023/03/14 06:02:05;;;;;;;12.10;3.50;;;9.30;99.90;;;;;;5042131;28;20678;-47
2023/03/14 06:04:42;;;;;;;10.27;3.67;;;9.30;99.90;;;;;;5045105;28;20858;-48
2023/03/14 06:07:09;;;;;;;10.90;4.47;;;9.30;99.90;;;;;;5047857;28;20632;-48
2023/03/14 06:09:36;;;;;;;9.93;4.50;;;9.40;99.90;;;;;;5031149;28;20194;-49
2023/03/14 06:12:04;;;;;;;9.90;4.27;;;9.40;99.90;;;;;;5047683;28;20219;-47
2023/03/14 06:14:36;;;;;;;3.90;3.33;;;9.40;99.90;;;;;;5049829;28;20215;-49
2023/03/14 06:17:04;;;;;;;7.70;3.37;;;9.40;99.90;;;;;;5043326;28;20303;-48
2023/03/14 06:19:37;;;;;;;9.73;4.97;;;9.50;99.90;;;;;;5039332;28;20273;-48
2023/03/14 06:22:04;;;;;;;23.83;6.53;;;9.50;99.90;;;;;;5046154;28;20217;-48
2023/03/14 06:24:33;;;;;;;25.83;7.50;;;9.50;99.90;;;;;;5044427;28;20238;-53
2023/03/14 06:27:02;;;;;;;11.23;6.40;;;9.50;99.90;;;;;;5053351;28;20238;-47
2023/03/14 06:29:31;;;;;;;11.67;5.03;;;9.60;99.90;;;;;;5044721;28;20214;-54
2023/03/14 06:31:58;;;;;;;17.07;7.30;;;9.60;99.90;;;;;;5042749;28;20234;-50
2023/03/14 06:34:26;;;;;;;7.70;5.17;;;9.60;99.90;;;;;;5040459;28;20318;-54
2023/03/14 06:36:54;;;;;;;9.50;4.30;;;9.60;99.90;;;;;;5046674;28;20286;-50
2023/03/14 06:39:21;;;;;;;12.83;6.07;;;9.60;99.90;;;;;;5045595;28;20195;-52
2023/03/14 06:41:53;;;;;;;5.33;4.83;;;9.60;99.90;;;;;;5032260;28;20206;-47
2023/03/14 06:44:21;;;;;;;9.73;4.97;;;9.60;99.90;;;;;;5044203;28;20227;-51
2023/03/14 06:46:49;;;;;;;20.47;6.87;;;9.60;99.90;;;;;;5041558;28;20214;-48
2023/03/14 06:49:17;;;;;;;16.40;8.10;;;9.60;99.90;;;;;;5042962;28;20270;-51
2023/03/14 06:51:44;;;;;;;17.30;6.43;;;9.70;99.90;;;;;;5034141;28;20305;-47
2023/03/14 06:54:12;;;;;;;14.07;6.97;;;9.60;99.90;;;;;;5052230;28;20269;-47
2023/03/14 06:56:41;;;;;;;9.27;5.47;;;9.70;99.90;;;;;;5027924;28;20205;-47
2023/03/14 06:59:09;;;;;;;7.37;5.03;;;9.70;99.90;;;;;;5057261;28;20757;-47
2023/03/14 07:01:36;;;;;;;9.20;5.43;;;9.70;99.90;;;;;;5041032;28;20204;-52
2023/03/14 07:04:09;;;;;;;6.23;4.47;;;9.70;99.90;;;;;;5042751;28;20257;-47
2023/03/14 07:06:43;;;;;;;7.80;5.57;;;9.70;99.90;;;;;;5038458;28;20223;-47
2023/03/14 07:09:10;;;;;;;9.93;4.80;;;9.80;99.90;;;;;;5050499;28;20230;-47
2023/03/14 07:11:40;;;;;;;9.83;5.03;;;9.80;99.90;;;;;;5040857;28;20230;-49
2023/03/14 07:14:07;;;;;;;9.40;5.37;;;9.80;99.90;;;;;;5050035;28;20591;-49
2023/03/14 07:16:34;;;;;;;11.97;4.60;;;9.80;99.90;;;;;;5041185;28;20214;-51
2023/03/14 07:19:01;;;;;;;10.73;6.00;;;9.80;99.90;;;;;;5044141;28;20865;-47
2023/03/14 07:21:31;;;;;;;8.10;3.70;;;9.90;99.90;;;;;;5040450;28;20205;-54
2023/03/14 07:23:59;;;;;;;7.83;3.60;;;9.90;99.90;;;;;;5044587;28;20219;-47
2023/03/14 07:26:26;;;;;;;9.57;3.50;;;9.90;99.90;;;;;;5040118;28;20202;-54
2023/03/14 07:28:53;;;;;;;8.63;3.60;;;9.90;99.90;;;;;;5043315;28;20199;-47
2023/03/14 07:31:22;;;;;;;8.00;3.80;;;9.90;99.90;;;;;;5052973;28;20575;-52
2023/03/14 07:33:49;;;;;;;7.27;3.10;;;10.00;99.90;;;;;;5039482;28;20199;-47
2023/03/14 07:36:18;;;;;;;6.47;2.40;;;10.00;99.90;;;;;;5041547;28;20210;-52
2023/03/14 07:38:47;;;;;;;5.50;2.93;;;10.10;99.90;;;;;;5034526;28;20194;-49
2023/03/14 07:41:30;;;;;;;4.80;2.67;;;10.20;99.90;;;;;;5041822;28;20198;-52
2023/03/14 07:44:16;;;;;;;8.90;3.27;;;10.20;99.90;;;;;;5049984;28;20299;-48
2023/03/14 07:46:42;;;;;;;5.53;2.37;;;10.20;99.90;;;;;;5044667;28;20199;-53
2023/03/14 07:49:09;;;;;;;4.33;2.20;;;10.20;99.90;;;;;;5043555;28;20199;-50
2023/03/14 07:51:36;;;;;;;5.57;2.40;;;10.20;99.90;;;;;;5050026;28;20210;-47
2023/03/14 07:54:04;;;;;;;7.37;2.63;;;10.10;99.90;;;;;;5062430;28;20223;-49
2023/03/14 07:56:32;;;;;;;6.87;2.17;;;10.10;99.90;;;;;;5031476;28;20278;-51
2023/03/14 07:58:59;;;;;;;8.83;2.80;;;10.10;99.90;;;;;;5052466;28;20282;-50
2023/03/14 08:01:27;;;;;;;4.83;2.60;;;10.10;99.90;;;;;;5042595;28;20669;-50
2023/03/14 08:03:54;;;;;;;5.30;2.70;;;10.00;99.90;;;;;;5040694;28;20366;-47
2023/03/14 08:06:20;;;;;;;10.27;3.87;;;10.00;99.90;;;;;;5042624;28;20616;-53
2023/03/14 08:08:48;;;;;;;4.03;2.30;;;10.00;99.90;;;;;;5041175;28;20199;-50
2023/03/14 08:11:16;;;;;;;6.60;2.93;;;10.10;99.90;;;;;;5040943;28;20673;-47
2023/03/14 08:13:49;;;;;;;6.57;2.77;;;10.10;99.90;;;;;;5030969;28;20203;-47
2023/03/14 08:16:16;;;;;;;7.73;2.30;;;10.20;99.90;;;;;;5055320;28;20653;-49
2023/03/14 08:18:42;;;;;;;5.57;2.90;;;10.20;99.90;;;;;;5041823;28;20992;-48
2023/03/14 08:21:10;;;;;;;4.03;2.13;;;10.20;99.90;;;;;;5043544;28;20203;-47
2023/03/14 08:23:37;;;;;;;9.43;2.70;;;10.20;99.90;;;;;;5038825;28;20202;-48
2023/03/14 08:26:04;;;;;;;4.53;2.50;;;10.30;99.90;;;;;;5049289;28;20214;-50
2023/03/14 08:28:33;;;;;;;4.57;1.77;;;10.30;99.90;;;;;;5032299;28;20221;-53
2023/03/14 08:31:01;;;;;;;5.43;1.90;;;10.30;99.90;;;;;;5051235;28;20199;-47
2023/03/14 08:33:29;;;;;;;6.20;1.97;;;10.30;99.90;;;;;;5039954;28;20238;-53
2023/03/14 08:35:58;;;;;;;4.33;1.90;;;10.40;99.90;;;;;;5043159;28;20242;-47
2023/03/14 08:38:26;;;;;;;4.20;1.53;;;10.40;99.90;;;;;;5044483;28;20203;-53
2023/03/14 08:40:57;;;;;;;2.77;1.70;;;10.40;99.90;;;;;;5042833;28;20219;-47
2023/03/14 08:43:25;;;;;;;2.23;1.67;;;10.40;99.90;;;;;;5038734;28;20293;-52
2023/03/14 08:45:53;;;;;;;7.43;3.13;;;10.50;99.90;;;;;;5045268;28;20227;-47
2023/03/14 08:48:20;;;;;;;2.50;1.20;;;10.50;99.90;;;;;;5055741;28;20205;-53
2023/03/14 08:50:47;;;;;;;4.83;2.03;;;10.50;99.90;;;;;;5038348;28;21024;-49
2023/03/14 08:53:14;;;;;;;4.10;1.93;;;10.50;99.90;;;;;;5046021;28;20227;-48
2023/03/14 08:55:41;;;;;;;6.23;2.63;;;10.40;99.90;;;;;;5045534;28;20226;-47
2023/03/14 08:58:08;;;;;;;7.10;3.00;;;10.40;99.90;;;;;;5054845;28;20206;-47
2023/03/14 09:00:35;;;;;;;5.13;2.00;;;10.40;99.90;;;;;;5041855;28;20203;-52
2023/03/14 09:03:03;;;;;;;3.63;1.73;;;10.30;99.90;;;;;;5054201;28;20633;-48
2023/03/14 09:05:33;;;;;;;5.23;2.53;;;10.30;99.90;;;;;;5043627;28;20219;-54
2023/03/14 09:08:00;;;;;;;5.87;2.57;;;10.20;99.90;;;;;;5045985;28;20310;-49
2023/03/14 09:10:26;;;;;;;7.30;2.47;;;10.20;99.90;;;;;;5041716;28;20253;-54
2023/03/14 09:12:54;;;;;;;7.13;3.17;;;10.20;99.90;;;;;;5048176;28;20219;-48
2023/03/14 09:15:21;;;;;;;5.40;2.97;;;10.20;99.90;;;;;;5038853;28;20292;-52
2023/03/14 09:17:47;;;;;;;6.53;2.93;;;10.30;99.90;;;;;;5044632;28;20196;-51
2023/03/14 09:20:15;;;;;;;4.93;2.87;;;10.30;99.90;;;;;;5046150;28;20226;-47
2023/03/14 09:22:42;;;;;;;6.80;2.83;;;10.40;99.90;;;;;;5040887;28;20195;-48
2023/03/14 09:25:09;;;;;;;3.60;2.60;;;10.30;99.90;;;;;;5050918;28;20253;-52
2023/03/14 09:27:36;;;;;;;4.50;2.30;;;10.30;99.90;;;;;;5043407;28;20198;-49
2023/03/14 09:30:04;;;;;;;6.53;2.43;;;10.30;99.90;;;;;;5034457;28;20207;-47
2023/03/14 09:32:31;;;;;;;4.93;2.60;;;10.20;99.90;;;;;;5052248;28;20720;-50
2023/03/14 09:34:58;;;;;;;10.63;3.20;;;10.20;99.90;;;;;;5063795;28;20731;-47
2023/03/14 09:37:27;;;;;;;6.87;2.97;;;10.20;99.90;;;;;;5062845;28;20549;-52
2023/03/14 09:39:54;;;;;;;6.57;2.60;;;10.20;99.90;;;;;;5063410;28;20194;-49
2023/03/14 09:42:23;;;;;;;6.43;2.83;;;10.10;99.90;;;;;;5051182;28;20230;-51
2023/03/14 09:44:56;;;;;;;10.37;3.63;;;10.10;99.90;;;;;;5032026;28;21857;-47
2023/03/14 09:47:24;;;;;;;7.53;3.10;;;10.00;99.90;;;;;;5056285;28;20211;-52
2023/03/14 09:49:50;;;;;;;1.87;1.00;;;9.90;99.90;;;;;;5043583;28;20813;-52
2023/03/14 09:52:22;;;;;;;2.50;0.60;;;9.50;99.90;;;;;;5044573;28;20218;-51
2023/03/14 09:54:54;;;;;;;0.40;0.40;;;9.10;99.90;;;;;;5045691;28;20271;-49
2023/03/14 09:57:24;;;;;;;3.17;0.80;;;8.80;99.90;;;;;;5051661;28;20278;-54
2023/03/14 09:59:54;;;;;;;2.70;0.90;;;8.60;99.90;;;;;;5044274;28;20233;-50
2023/03/14 10:02:23;;;;;;;2.10;1.00;;;8.40;99.90;;;;;;5034697;28;20257;-53
2023/03/14 10:04:51;;;;;;;0.90;0.50;;;8.40;99.90;;;;;;5047903;28;20910;-50
2023/03/14 10:07:20;;;;;;;1.70;0.63;;;8.30;99.90;;;;;;5044821;28;20552;-51
2023/03/14 10:09:50;;;;;;;1.67;0.60;;;8.30;99.90;;;;;;5042307;28;20195;-48
2023/03/14 10:12:20;;;;;;;1.50;0.37;;;8.10;99.90;;;;;;5044180;28;20214;-53
2023/03/14 10:14:49;;;;;;;1.93;0.50;;;7.70;99.90;;;;;;5040116;28;20297;-47
2023/03/14 10:17:19;;;;;;;2.03;0.50;;;7.50;99.90;;;;;;5041176;28;20241;-52
2023/03/14 10:20:00;;;;;;;1.00;0.60;;;7.20;99.90;;;;;;5047874;28;20231;-47
2023/03/14 10:22:30;;;;;;;0.63;0.43;;;7.00;99.90;;;;;;5042752;28;20257;-49
2023/03/14 10:25:00;;;;;;;1.80;0.63;;;6.90;99.90;;;;;;5045507;28;20260;-51
2023/03/14 10:27:33;;;;;;;1.27;0.63;;;6.80;99.90;;;;;;5055795;28;20202;-54
2023/03/14 10:30:04;;;;;;;0.50;0.30;;;6.70;99.90;;;;;;5044832;28;20207;-48
2023/03/14 10:32:35;;;;;;;1.40;0.37;;;6.50;99.90;;;;;;5030486;28;20293;-52
2023/03/14 10:35:20;;;;;;;1.83;0.50;;;6.30;99.90;;;;;;5051665;28;20229;-48
2023/03/14 10:37:56;;;;;;;0.30;0.10;;;6.10;99.90;;;;;;5041637;28;20276;-49
2023/03/14 10:40:29;;;;;;;0.97;0.33;;;5.90;99.90;;;;;;5042693;28;20210;-52
2023/03/14 10:42:58;;;;;;;1.80;0.50;;;5.80;99.90;;;;;;5043388;28;20202;-52
2023/03/14 10:45:33;;;;;;;0.30;0.30;;;5.60;99.90;;;;;;5039683;28;20261;-50
2023/03/14 10:48:16;;;;;;;1.70;0.30;;;5.50;99.90;;;;;;5034734;28;20198;-49
2023/03/14 10:50:49;;;;;;;0.40;0.30;;;5.40;99.90;;;;;;5048140;28;20297;-48
2023/03/14 10:53:18;;;;;;;1.37;0.30;;;5.30;99.90;;;;;;5044330;28;20216;-50
2023/03/14 10:55:46;;;;;;;0.60;0.30;;;5.20;99.90;;;;;;5046612;28;20330;-46
2023/03/14 10:58:25;;;;;;;0.93;0.20;;;5.10;99.90;;;;;;5050599;28;20202;-47
2023/03/14 11:01:02;;;;;;;0.13;0.13;;;5.00;99.90;;;;;;5042221;28;20206;-51
2023/03/14 11:03:32;;;;;;;0.50;0.30;;;5.00;99.90;;;;;;5031412;28;20226;-51
2023/03/14 11:06:07;;;;;;;0.67;0.10;;;4.90;99.90;;;;;;5046315;28;20215;-47
2023/03/14 11:08:38;;;;;;;0.30;0.20;;;4.90;99.90;;;;;;5054257;28;20203;-51
2023/03/14 11:11:14;;;;;;;1.40;0.20;;;4.90;99.90;;;;;;5062984;28;20241;-47
2023/03/14 11:13:52;;;;;;;0.30;0.20;;;4.80;99.90;;;;;;5058948;28;20218;-51
2023/03/14 11:16:27;;;;;;;0.20;0.20;;;4.80;99.90;;;;;;5061735;28;20267;-52
2023/03/14 11:19:06;;;;;;;1.53;0.30;;;4.80;99.90;;;;;;5041312;28;20308;-51
2023/03/14 11:21:39;;;;;;;0.97;0.40;;;4.70;99.90;;;;;;5048981;28;20194;-50
2023/03/14 11:24:33;;;;;;;2.43;0.60;;;4.60;99.90;;;;;;5043689;28;20232;-48
2023/03/14 11:27:07;;;;;;;3.90;0.53;;;4.70;99.90;;;;;;5052724;28;20207;-47
2023/03/14 11:29:40;;;;;;;1.60;0.50;;;4.70;99.90;;;;;;5040265;28;20231;-53
2023/03/14 11:32:14;;;;;;;1.20;0.27;;;4.70;99.90;;;;;;5043733;28;20695;-49
2023/03/14 11:34:49;;;;;;;2.47;0.60;;;4.80;99.90;;;;;;5030538;28;20217;-48
2023/03/14 11:37:25;;;;;;;1.40;0.80;;;4.80;99.90;;;;;;5047598;28;20528;-51
2023/03/14 11:40:00;;;;;;;2.53;0.63;;;4.90;99.90;;;;;;5041702;28;20191;-49
2023/03/14 11:42:28;;;;;;;3.43;0.47;;;4.90;99.90;;;;;;5041025;28;20199;-53
2023/03/14 11:45:00;;;;;;;3.03;0.63;;;5.00;99.90;;;;;;5042048;28;20226;-49
2023/03/14 11:47:33;;;;;;;1.33;0.57;;;5.10;99.90;;;;;;5039011;28;20583;-53
2023/03/14 11:50:06;;;;;;;1.33;0.43;;;5.10;99.90;;;;;;5037297;28;20214;-47
2023/03/14 11:52:36;;;;;;;1.43;0.80;;;5.20;99.90;;;;;;5046469;28;20762;-52
2023/03/14 11:55:12;;;;;;;3.00;0.70;;;5.20;99.90;;;;;;5045911;28;20215;-50
2023/03/14 11:57:40;;;;;;;4.27;0.70;;;5.30;99.90;;;;;;5055364;28;20182;-49
2023/03/14 12:00:16;;;;;;;4.77;1.00;;;5.30;99.90;;;;;;5045536;28;20285;-53
2023/03/14 12:02:51;;;;;;;5.00;1.10;;;5.20;99.90;;;;;;5038478;28;20183;-48
2023/03/14 12:05:45;;;;;;;4.07;1.00;;;5.20;99.90;;;;;;5034682;28;20226;-54
2023/03/14 12:08:31;;;;;;;1.67;0.83;;;5.30;99.90;;;;;;5048595;28;20654;-48
2023/03/14 12:11:03;;;;;;;2.13;0.87;;;5.30;99.90;;;;;;5058716;28;20199;-47
2023/03/14 12:13:34;;;;;;;1.80;0.60;;;5.40;99.90;;;;;;5063516;28;20711;-51
2023/03/14 12:16:07;;;;;;;8.47;1.10;;;5.40;99.90;;;;;;5055831;28;20254;-48
2023/03/14 12:18:38;;;;;;;5.77;0.80;;;5.40;99.90;;;;;;5039890;28;20249;-54
2023/03/14 12:21:07;;;;;;;5.67;1.03;;;5.40;99.90;;;;;;5037164;28;20211;-50
2023/03/14 12:23:38;;;;;;;6.13;1.20;;;5.40;99.90;;;;;;5049750;28;20204;-52
2023/03/14 12:26:17;;;;;;;5.43;1.20;;;5.40;99.90;;;;;;5052822;28;20203;-48
2023/03/14 12:28:49;;;;;;;3.93;1.20;;;5.40;99.90;;;;;;5054604;28;20941;-52
2023/03/14 12:31:44;;;;;;;4.83;1.00;;;5.40;99.90;;;;;;5045668;28;20234;-50
2023/03/14 12:34:29;;;;;;;7.13;0.83;;;5.40;99.90;;;;;;5041377;28;20728;-47
2023/03/14 12:37:02;;;;;;;5.47;1.27;;;5.40;99.90;;;;;;5049396;28;20210;-47
2023/03/14 12:39:44;;;;;;;7.60;1.10;;;5.40;99.90;;;;;;5050005;28;20235;-53
2023/03/14 12:42:12;;;;;;;3.77;0.97;;;5.40;99.90;;;;;;5065244;28;20260;-48
2023/03/14 12:44:42;;;;;;;3.87;1.10;;;5.50;99.90;;;;;;5061957;28;20207;-48
2023/03/14 12:47:45;;;;;;;7.50;1.40;;;5.50;99.90;;;;;;5065114;28;20217;-48
2023/03/14 12:50:21;;;;;;;5.47;1.00;;;5.50;99.90;;;;;;5044870;28;20218;-48
2023/03/14 12:53:05;;;;;;;6.47;1.03;;;5.50;99.90;;;;;;5054193;28;20281;-47
2023/03/14 12:55:36;;;;;;;5.13;1.00;;;5.50;99.90;;;;;;5049586;28;20217;-51
2023/03/14 12:58:12;;;;;;;5.40;1.23;;;5.50;99.90;;;;;;5051983;28;20196;-50
2023/03/14 13:00:40;;;;;;;8.80;1.17;;;5.60;99.90;;;;;;5041658;28;20202;-46
2023/03/14 13:03:19;;;;;;;6.20;1.30;;;5.60;99.90;;;;;;5043360;28;20777;-46
2023/03/14 13:05:57;;;;;;;9.80;1.23;;;5.70;99.90;;;;;;5032250;28;20226;-49
2023/03/14 13:08:37;;;;;;;6.13;1.50;;;5.90;99.90;;;;;;5046200;28;20253;-54
2023/03/14 13:11:06;;;;;;;10.20;1.83;;;6.00;99.90;;;;;;5046246;28;20206;-47
2023/03/14 13:13:35;;;;;;;9.53;2.23;;;6.00;99.90;;;;;;5042081;28;20211;-54
2023/03/14 13:16:04;;;;;;;6.03;1.57;;;6.10;99.90;;;;;;5045885;28;20305;-48